sensor_id;sensor_type;location;lat;lon;timestamp;pressure;altitude;pressure_sealevel;temperature
61189;BMP280;47054;39.716;2.904;2023-05-28T00:00:50;100180.31;;;27.42
61189;BMP280;47054;39.716;2.904;2023-05-28T00:03:53;100170.75;;;27.37
61189;BMP280;47054;39.716;2.904;2023-05-28T00:06:57;100178.03;;;27.40
61189;BMP280;47054;39.716;2.904;2023-05-28T00:10:00;100163.56;;;27.31
61189;BMP280;47054;39.716;2.904;2023-05-28T00:12:48;100162.25;;;27.35
61189;BMP280;47054;39.716;2.904;2023-05-28T00:15:32;100173.34;;;27.41
61189;BMP280;47054;39.716;2.904;2023-05-28T00:18:17;100172.59;;;27.40
61189;BMP280;47054;39.716;2.904;2023-05-28T00:21:01;100163.34;;;27.38
61189;BMP280;47054;39.716;2.904;2023-05-28T00:23:46;100162.78;;;27.43
61189;BMP280;47054;39.716;2.904;2023-05-28T00:26:31;100165.94;;;27.41
61189;BMP280;47054;39.716;2.904;2023-05-28T00:29:16;100161.25;;;27.42
61189;BMP280;47054;39.716;2.904;2023-05-28T00:32:01;100165.19;;;27.41
61189;BMP280;47054;39.716;2.904;2023-05-28T00:34:45;100154.41;;;27.37
61189;BMP280;47054;39.716;2.904;2023-05-28T00:37:30;100153.97;;;27.39
61189;BMP280;47054;39.716;2.904;2023-05-28T00:40:15;100159.75;;;27.41
61189;BMP280;47054;39.716;2.904;2023-05-28T00:43:02;100153.50;;;27.40
61189;BMP280;47054;39.716;2.904;2023-05-28T00:45:50;100152.63;;;27.43
61189;BMP280;47054;39.716;2.904;2023-05-28T00:48:34;100147.97;;;27.44
61189;BMP280;47054;39.716;2.904;2023-05-28T00:51:19;100144.91;;;27.42
61189;BMP280;47054;39.716;2.904;2023-05-28T00:54:04;100151.44;;;27.44
61189;BMP280;47054;39.716;2.904;2023-05-28T00:56:49;100157.63;;;27.45
61189;BMP280;47054;39.716;2.904;2023-05-28T00:59:36;100153.50;;;27.40
61189;BMP280;47054;39.716;2.904;2023-05-28T01:02:21;100161.25;;;27.42
61189;BMP280;47054;39.716;2.904;2023-05-28T01:05:07;100175.97;;;27.44
61189;BMP280;47054;39.716;2.904;2023-05-28T01:07:52;100161.13;;;27.45
61189;BMP280;47054;39.716;2.904;2023-05-28T01:10:37;100153.50;;;27.40
61189;BMP280;47054;39.716;2.904;2023-05-28T01:13:22;100146.88;;;27.41
61189;BMP280;47054;39.716;2.904;2023-05-28T01:16:07;100148.72;;;27.44
61189;BMP280;47054;39.716;2.904;2023-05-28T01:18:54;100136.75;;;27.42
61189;BMP280;47054;39.716;2.904;2023-05-28T01:21:41;100135.09;;;27.44
61189;BMP280;47054;39.716;2.904;2023-05-28T01:24:27;100139.78;;;27.44
61189;BMP280;47054;39.716;2.904;2023-05-28T01:27:13;100143.28;;;27.44
61189;BMP280;47054;39.716;2.904;2023-05-28T01:29:58;100132.19;;;27.39
61189;BMP280;47054;39.716;2.904;2023-05-28T01:32:43;100135.09;;;27.44
61189;BMP280;47054;39.716;2.904;2023-05-28T01:35:28;100128.91;;;27.44
61189;BMP280;47054;39.716;2.904;2023-05-28T01:38:15;100113.22;;;27.35
61189;BMP280;47054;39.716;2.904;2023-05-28T01:41:00;100118.00;;;27.44
61189;BMP280;47054;39.716;2.904;2023-05-28T01:43:46;100113.75;;;27.43
61189;BMP280;47054;39.716;2.904;2023-05-28T01:46:32;100103.00;;;27.39
61189;BMP280;47054;39.716;2.904;2023-05-28T01:49:17;100107.88;;;27.44
61189;BMP280;47054;39.716;2.904;2023-05-28T01:52:02;100115.28;;;27.44
61189;BMP280;47054;39.716;2.904;2023-05-28T01:54:47;100088.28;;;27.37
61189;BMP280;47054;39.716;2.904;2023-05-28T01:57:34;100106.66;;;27.45
61189;BMP280;47054;39.716;2.904;2023-05-28T02:00:20;100101.66;;;27.44
61189;BMP280;47054;39.716;2.904;2023-05-28T02:03:06;100090.00;;;27.43
61189;BMP280;47054;39.716;2.904;2023-05-28T02:05:55;100098.16;;;27.43
61189;BMP280;47054;39.716;2.904;2023-05-28T02:08:40;100095.16;;;27.41
61189;BMP280;47054;39.716;2.904;2023-05-28T02:11:25;100083.81;;;27.43
61189;BMP280;47054;39.716;2.904;2023-05-28T02:14:12;100079.09;;;27.43
61189;BMP280;47054;39.716;2.904;2023-05-28T02:16:58;100072.91;;;27.43
61189;BMP280;47054;39.716;2.904;2023-05-28T02:19:44;100070.31;;;27.39
61189;BMP280;47054;39.716;2.904;2023-05-28T02:22:29;100082.28;;;27.42
61189;BMP280;47054;39.716;2.904;2023-05-28T02:25:13;100077.72;;;27.39
61189;BMP280;47054;39.716;2.904;2023-05-28T02:27:58;100081.09;;;27.43
61189;BMP280;47054;39.716;2.904;2023-05-28T02:30:43;100076.97;;;27.38
61189;BMP280;47054;39.716;2.904;2023-05-28T02:33:27;100080.75;;;27.41
61189;BMP280;47054;39.716;2.904;2023-05-28T02:36:12;100077.72;;;27.39
61189;BMP280;47054;39.716;2.904;2023-05-28T02:38:57;100076.38;;;27.43
61189;BMP280;47054;39.716;2.904;2023-05-28T02:41:41;100075.75;;;27.39
61189;BMP280;47054;39.716;2.904;2023-05-28T02:44:26;100075.75;;;27.39
61189;BMP280;47054;39.716;2.904;2023-05-28T02:47:10;100075.00;;;27.39
61189;BMP280;47054;39.716;2.904;2023-05-28T02:49:57;100081.53;;;27.41
61189;BMP280;47054;39.716;2.904;2023-05-28T02:52:42;100083.50;;;27.41
61189;BMP280;47054;39.716;2.904;2023-05-28T02:55:27;100093.94;;;27.42
61189;BMP280;47054;39.716;2.904;2023-05-28T02:58:12;100086.31;;;27.37
61189;BMP280;47054;39.716;2.904;2023-05-28T03:00:57;100089.06;;;27.37
61189;BMP280;47054;39.716;2.904;2023-05-28T03:03:43;100097.88;;;27.41
61189;BMP280;47054;39.716;2.904;2023-05-28T03:06:27;100086.97;;;27.41
61189;BMP280;47054;39.716;2.904;2023-05-28T03:09:12;100090.44;;;27.42
61189;BMP280;47054;39.716;2.904;2023-05-28T03:11:58;100085.88;;;27.39
61189;BMP280;47054;39.716;2.904;2023-05-28T03:14:42;100086.97;;;27.41
61189;BMP280;47054;39.716;2.904;2023-05-28T03:17:28;100088.63;;;27.39
61189;BMP280;47054;39.716;2.904;2023-05-28T03:20:14;100087.72;;;27.42
61189;BMP280;47054;39.716;2.904;2023-05-28T03:22:59;100090.00;;;27.43
61189;BMP280;47054;39.716;2.904;2023-05-28T03:25:44;100086.22;;;27.41
61189;BMP280;47054;39.716;2.904;2023-05-28T03:28:29;100085.16;;;27.38
61189;BMP280;47054;39.716;2.904;2023-05-28T03:31:46;100089.25;;;27.43
61189;BMP280;47054;39.716;2.904;2023-05-28T03:34:35;100085.16;;;27.38
61189;BMP280;47054;39.716;2.904;2023-05-28T03:37:20;100081.97;;;27.40
61189;BMP280;47054;39.716;2.904;2023-05-28T03:40:06;100088.94;;;27.41
61189;BMP280;47054;39.716;2.904;2023-05-28T03:42:51;100097.88;;;27.41
61189;BMP280;47054;39.716;2.904;2023-05-28T03:45:36;100094.19;;;27.35
61189;BMP280;47054;39.716;2.904;2023-05-28T03:48:21;100099.81;;;27.41
61189;BMP280;47054;39.716;2.904;2023-05-28T03:51:06;100092.44;;;27.41
61189;BMP280;47054;39.716;2.904;2023-05-28T03:53:51;100093.59;;;27.40
61189;BMP280;47054;39.716;2.904;2023-05-28T03:56:36;100082.84;;;27.37
61189;BMP280;47054;39.716;2.904;2023-05-28T03:59:22;100088.63;;;27.39
61189;BMP280;47054;39.716;2.904;2023-05-28T04:02:07;100077.72;;;27.39
61189;BMP280;47054;39.716;2.904;2023-05-28T04:04:51;100091.66;;;27.41
61189;BMP280;47054;39.716;2.904;2023-05-28T04:07:36;100092.88;;;27.40
61189;BMP280;47054;39.716;2.904;2023-05-28T04:10:20;100095.59;;;27.40
61189;BMP280;47054;39.716;2.904;2023-05-28T04:13:05;100087.88;;;27.38
61189;BMP280;47054;39.716;2.904;2023-05-28T04:15:49;100073.59;;;27.34
61189;BMP280;47054;39.716;2.904;2023-05-28T04:18:34;100084.06;;;27.36
61189;BMP280;47054;39.716;2.904;2023-05-28T04:21:23;100085.16;;;27.38
61189;BMP280;47054;39.716;2.904;2023-05-28T04:24:08;100091.13;;;27.33
61189;BMP280;47054;39.716;2.904;2023-05-28T04:26:52;100092.09;;;27.39
61189;BMP280;47054;39.716;2.904;2023-05-28T04:29:37;100087.09;;;27.38
61189;BMP280;47054;39.716;2.904;2023-05-28T04:32:23;100083.59;;;27.37
61189;BMP280;47054;39.716;2.904;2023-05-28T04:35:07;100087.88;;;27.38
61189;BMP280;47054;39.716;2.904;2023-05-28T04:37:53;100078.28;;;27.34
61189;BMP280;47054;39.716;2.904;2023-05-28T04:40:38;100083.16;;;27.39
61189;BMP280;47054;39.716;2.904;2023-05-28T04:43:24;100084.06;;;27.36
61189;BMP280;47054;39.716;2.904;2023-05-28T04:46:08;100091.34;;;27.39
61189;BMP280;47054;39.716;2.904;2023-05-28T04:48:54;100088.72;;;27.35
61189;BMP280;47054;39.716;2.904;2023-05-28T04:51:39;100087.66;;;27.33
61189;BMP280;47054;39.716;2.904;2023-05-28T04:54:24;100093.00;;;27.36
61189;BMP280;47054;39.716;2.904;2023-05-28T04:57:08;100099.28;;;27.33
61189;BMP280;47054;39.716;2.904;2023-05-28T04:59:52;100088.88;;;27.32
61189;BMP280;47054;39.716;2.904;2023-05-28T05:02:37;100098.09;;;27.34
61189;BMP280;47054;39.716;2.904;2023-05-28T05:05:21;100105.94;;;27.32
61189;BMP280;47054;39.716;2.904;2023-05-28T05:08:06;100106.59;;;27.36
61189;BMP280;47054;39.716;2.904;2023-05-28T05:10:53;100099.63;;;27.35
61189;BMP280;47054;39.716;2.904;2023-05-28T05:13:38;100105.06;;;27.35
61189;BMP280;47054;39.716;2.904;2023-05-28T05:16:22;100093.56;;;27.31
61189;BMP280;47054;39.716;2.904;2023-05-28T05:19:07;100094.19;;;27.35
61189;BMP280;47054;39.716;2.904;2023-05-28T05:21:52;100088.88;;;27.32
61189;BMP280;47054;39.716;2.904;2023-05-28T05:24:37;100092.34;;;27.32
61189;BMP280;47054;39.716;2.904;2023-05-28T05:27:22;100099.00;;;27.31
61189;BMP280;47054;39.716;2.904;2023-05-28T05:30:07;100102.50;;;27.32
61189;BMP280;47054;39.716;2.904;2023-05-28T05:32:52;100102.00;;;27.33
61189;BMP280;47054;39.716;2.904;2023-05-28T05:35:36;100100.06;;;27.34
61189;BMP280;47054;39.716;2.904;2023-05-28T05:38:49;100102.78;;;27.34
61189;BMP280;47054;39.716;2.904;2023-05-28T05:42:00;100096.38;;;27.28
61189;BMP280;47054;39.716;2.904;2023-05-28T05:44:52;100099.41;;;27.30
61189;BMP280;47054;39.716;2.904;2023-05-28T05:47:38;100103.22;;;27.32
61189;BMP280;47054;39.716;2.904;2023-05-28T05:50:24;100099.00;;;27.31
61189;BMP280;47054;39.716;2.904;2023-05-28T05:53:09;100089.41;;;27.27
61189;BMP280;47054;39.716;2.904;2023-05-28T05:55:53;100090.19;;;27.27
61189;BMP280;47054;39.716;2.904;2023-05-28T05:58:38;100101.38;;;27.29
61189;BMP280;47054;39.716;2.904;2023-05-28T06:01:23;100105.94;;;27.32
61189;BMP280;47054;39.716;2.904;2023-05-28T06:04:08;100097.56;;;27.27
61189;BMP280;47054;39.716;2.904;2023-05-28T06:07:11;100109.13;;;27.31
61189;BMP280;47054;39.716;2.904;2023-05-28T06:10:11;100106.50;;;27.27
61189;BMP280;47054;39.716;2.904;2023-05-28T06:12:58;100113.03;;;27.30
61189;BMP280;47054;39.716;2.904;2023-05-28T06:15:46;100117.00;;;27.29
61189;BMP280;47054;39.716;2.904;2023-05-28T06:18:30;100114.25;;;27.29
61189;BMP280;47054;39.716;2.904;2023-05-28T06:21:16;100118.59;;;27.26
61189;BMP280;47054;39.716;2.904;2023-05-28T06:24:02;100108.94;;;27.25
61189;BMP280;47054;39.716;2.904;2023-05-28T06:26:47;100115.00;;;27.29
61189;BMP280;47054;39.716;2.904;2023-05-28T06:29:32;100117.72;;;27.29
61189;BMP280;47054;39.716;2.904;2023-05-28T06:32:17;100120.13;;;27.27
61189;BMP280;47054;39.716;2.904;2023-05-28T06:35:02;100109.72;;;27.26
61189;BMP280;47054;39.716;2.904;2023-05-28T06:37:47;100119.72;;;27.29
61189;BMP280;47054;39.716;2.904;2023-05-28T06:40:32;100103.41;;;27.16
61189;BMP280;47054;39.716;2.904;2023-05-28T06:43:16;100113.59;;;27.25
61189;BMP280;47054;39.716;2.904;2023-05-28T06:46:27;100111.97;;;27.27
61189;BMP280;47054;39.716;2.904;2023-05-28T06:49:12;100102.25;;;27.26
61189;BMP280;47054;39.716;2.904;2023-05-28T06:51:58;100103.03;;;27.27
61189;BMP280;47054;39.716;2.904;2023-05-28T06:54:42;100105.75;;;27.27
61189;BMP280;47054;39.716;2.904;2023-05-28T06:57:28;100106.22;;;27.25
61189;BMP280;47054;39.716;2.904;2023-05-28T07:00:25;100112.44;;;27.26
61189;BMP280;47054;39.716;2.904;2023-05-28T07:03:36;100111.00;;;27.21
61189;BMP280;47054;39.716;2.904;2023-05-28T07:06:37;100120.72;;;27.22
61189;BMP280;47054;39.716;2.904;2023-05-28T07:09:24;100117.75;;;27.17
61189;BMP280;47054;39.716;2.904;2023-05-28T07:12:09;100118.41;;;27.21
61189;BMP280;47054;39.716;2.904;2023-05-28T07:14:58;100118.97;;;27.16
61189;BMP280;47054;39.716;2.904;2023-05-28T07:17:43;100123.97;;;27.17
61189;BMP280;47054;39.716;2.904;2023-05-28T07:20:28;100109.84;;;27.10
61189;BMP280;47054;39.716;2.904;2023-05-28T07:23:19;100130.28;;;27.14
61189;BMP280;47054;39.716;2.904;2023-05-28T07:26:04;100131.50;;;27.13
61189;BMP280;47054;39.716;2.904;2023-05-28T07:28:49;100133.88;;;27.11
61189;BMP280;47054;39.716;2.904;2023-05-28T07:31:33;100137.69;;;27.14
61189;BMP280;47054;39.716;2.904;2023-05-28T07:34:20;100130.84;;;27.09
61189;BMP280;47054;39.716;2.904;2023-05-28T07:37:05;100142.06;;;27.11
61189;BMP280;47054;39.716;2.904;2023-05-28T07:39:50;100149.34;;;27.14
61189;BMP280;47054;39.716;2.904;2023-05-28T07:42:35;100147.38;;;27.15
61189;BMP280;47054;39.716;2.904;2023-05-28T07:45:23;100139.66;;;27.13
61189;BMP280;47054;39.716;2.904;2023-05-28T07:48:07;100145.84;;;27.14
61189;BMP280;47054;39.716;2.904;2023-05-28T07:51:04;100143.72;;;27.09
61189;BMP280;47054;39.716;2.904;2023-05-28T07:53:58;100137.38;;;27.12
61189;BMP280;47054;39.716;2.904;2023-05-28T07:56:42;100135.97;;;27.07
61189;BMP280;47054;39.716;2.904;2023-05-28T07:59:32;100134.00;;;27.08
61189;BMP280;47054;39.716;2.904;2023-05-28T08:02:18;100139.13;;;27.06
61189;BMP280;47054;39.716;2.904;2023-05-28T08:05:04;100145.66;;;27.08
61189;BMP280;47054;39.716;2.904;2023-05-28T08:07:49;100146.88;;;27.07
61189;BMP280;47054;39.716;2.904;2023-05-28T08:10:35;100155.34;;;27.09
61189;BMP280;47054;39.716;2.904;2023-05-28T08:13:21;100157.31;;;27.09
61189;BMP280;47054;39.716;2.904;2023-05-28T08:16:06;100158.50;;;27.08
61189;BMP280;47054;39.716;2.904;2023-05-28T08:19:10;100158.94;;;27.06
61189;BMP280;47054;39.716;2.904;2023-05-28T08:21:56;100157.00;;;27.07
61189;BMP280;47054;39.716;2.904;2023-05-28T08:24:41;100158.94;;;27.06
61189;BMP280;47054;39.716;2.904;2023-05-28T08:27:25;100155.78;;;27.08
61189;BMP280;47054;39.716;2.904;2023-05-28T08:30:10;100156.31;;;27.03
61189;BMP280;47054;39.716;2.904;2023-05-28T08:33:06;100158.75;;;27.01
61189;BMP280;47054;39.716;2.904;2023-05-28T08:35:51;100165.59;;;27.05
61189;BMP280;47054;39.716;2.904;2023-05-28T08:38:36;100160.16;;;27.05
61189;BMP280;47054;39.716;2.904;2023-05-28T08:41:23;100149.81;;;27.00
61189;BMP280;47054;39.716;2.904;2023-05-28T08:44:07;100161.47;;;27.01
61189;BMP280;47054;39.716;2.904;2023-05-28T08:46:53;100147.59;;;26.95
61189;BMP280;47054;39.716;2.904;2023-05-28T08:49:52;100157.09;;;27.03
61189;BMP280;47054;39.716;2.904;2023-05-28T08:52:48;100153.59;;;27.03
61189;BMP280;47054;39.716;2.904;2023-05-28T08:55:34;100134.66;;;26.99
61189;BMP280;47054;39.716;2.904;2023-05-28T08:58:33;100144.25;;;27.04
61189;BMP280;47054;39.716;2.904;2023-05-28T09:01:22;100147.38;;;27.02
61189;BMP280;47054;39.716;2.904;2023-05-28T09:04:27;100137.84;;;26.98
61189;BMP280;47054;39.716;2.904;2023-05-28T09:07:12;100142.81;;;26.99
61189;BMP280;47054;39.716;2.904;2023-05-28T09:10:06;100149.38;;;27.02
61189;BMP280;47054;39.716;2.904;2023-05-28T09:12:59;100136.63;;;26.99
61189;BMP280;47054;39.716;2.904;2023-05-28T09:15:44;100131.84;;;27.03
61189;BMP280;47054;39.716;2.904;2023-05-28T09:18:34;100130.09;;;26.96
61189;BMP280;47054;39.716;2.904;2023-05-28T09:21:20;100133.03;;;27.02
61189;BMP280;47054;39.716;2.904;2023-05-28T09:24:05;100130.31;;;27.02
61189;BMP280;47054;39.716;2.904;2023-05-28T09:27:09;100113.00;;;26.96
61189;BMP280;47054;39.716;2.904;2023-05-28T09:29:55;100100.28;;;26.93
61189;BMP280;47054;39.716;2.904;2023-05-28T09:32:40;100104.84;;;26.96
61189;BMP280;47054;39.716;2.904;2023-05-28T09:35:25;100107.56;;;26.96
61189;BMP280;47054;39.716;2.904;2023-05-28T09:38:11;100103.97;;;26.99
61189;BMP280;47054;39.716;2.904;2023-05-28T09:40:56;100091.59;;;26.98
61189;BMP280;47054;39.716;2.904;2023-05-28T09:43:40;100101.25;;;26.99
61189;BMP280;47054;39.716;2.904;2023-05-28T09:46:33;100098.41;;;27.02
61189;BMP280;47054;39.716;2.904;2023-05-28T09:49:19;100098.41;;;27.02
61189;BMP280;47054;39.716;2.904;2023-05-28T09:52:04;100090.81;;;26.97
61189;BMP280;47054;39.716;2.904;2023-05-28T09:54:52;100091.13;;;26.99
61189;BMP280;47054;39.716;2.904;2023-05-28T09:57:40;100093.84;;;26.99
61189;BMP280;47054;39.716;2.904;2023-05-28T10:06:14;100091.59;;;26.98
61189;BMP280;47054;39.716;2.904;2023-05-28T10:09:00;100108.56;;;27.02
61189;BMP280;47054;39.716;2.904;2023-05-28T10:11:53;100096.44;;;27.03
61189;BMP280;47054;39.716;2.904;2023-05-28T10:14:40;100091.13;;;26.99
61189;BMP280;47054;39.716;2.904;2023-05-28T10:17:25;100096.91;;;27.01
61189;BMP280;47054;39.716;2.904;2023-05-28T10:20:09;100094.94;;;27.02
61189;BMP280;47054;39.716;2.904;2023-05-28T10:22:55;100090.72;;;27.01
61189;BMP280;47054;39.716;2.904;2023-05-28T10:25:40;100097.66;;;27.02
61189;BMP280;47054;39.716;2.904;2023-05-28T10:28:25;100092.22;;;27.02
61189;BMP280;47054;39.716;2.904;2023-05-28T10:31:10;100074.72;;;26.90
61189;BMP280;47054;39.716;2.904;2023-05-28T10:33:54;100096.44;;;27.03
61189;BMP280;47054;39.716;2.904;2023-05-28T10:36:49;100096.03;;;27.04
61189;BMP280;47054;39.716;2.904;2023-05-28T10:39:44;100091.00;;;27.03
61189;BMP280;47054;39.716;2.904;2023-05-28T10:42:39;100088.72;;;27.01
61189;BMP280;47054;39.716;2.904;2023-05-28T10:45:37;100097.66;;;27.02
61189;BMP280;47054;39.716;2.904;2023-05-28T10:48:22;100090.81;;;26.97
61189;BMP280;47054;39.716;2.904;2023-05-28T10:51:07;100077.22;;;26.97
61189;BMP280;47054;39.716;2.904;2023-05-28T10:53:53;100082.19;;;26.99
61189;BMP280;47054;39.716;2.904;2023-05-28T10:59:57;100081.13;;;26.96
61189;BMP280;47054;39.716;2.904;2023-05-28T11:02:44;100078.72;;;26.98
61189;BMP280;47054;39.716;2.904;2023-05-28T11:05:29;100071.13;;;26.93
61189;BMP280;47054;39.716;2.904;2023-05-28T11:08:13;100071.00;;;26.97
61189;BMP280;47054;39.716;2.904;2023-05-28T11:10:58;100066.75;;;26.96
61189;BMP280;47054;39.716;2.904;2023-05-28T11:13:45;100068.28;;;26.97
61189;BMP280;47054;39.716;2.904;2023-05-28T11:16:31;100069.16;;;26.94
61189;BMP280;47054;39.716;2.904;2023-05-28T11:19:16;100060.53;;;26.95
61189;BMP280;47054;39.716;2.904;2023-05-28T11:22:01;100069.16;;;26.94
61189;BMP280;47054;39.716;2.904;2023-05-28T11:27:40;100069.16;;;26.94
61189;BMP280;47054;39.716;2.904;2023-05-28T11:30:25;100058.81;;;26.89
61189;BMP280;47054;39.716;2.904;2023-05-28T11:33:10;100066.44;;;26.94
61189;BMP280;47054;39.716;2.904;2023-05-28T11:35:59;100055.34;;;26.88
61189;BMP280;47054;39.716;2.904;2023-05-28T11:38:44;100047.34;;;26.85
61189;BMP280;47054;39.716;2.904;2023-05-28T11:41:29;100048.59;;;26.93
61189;BMP280;47054;39.716;2.904;2023-05-28T11:44:21;100052.50;;;26.92
61189;BMP280;47054;39.716;2.904;2023-05-28T11:47:06;100053.72;;;26.91
61189;BMP280;47054;39.716;2.904;2023-05-28T11:49:51;100052.19;;;26.90
61189;BMP280;47054;39.716;2.904;2023-05-28T11:52:36;100031.53;;;26.80
61189;BMP280;47054;39.716;2.904;2023-05-28T11:55:21;100041.75;;;26.88
61189;BMP280;47054;39.716;2.904;2023-05-28T11:58:06;100041.31;;;26.90
61189;BMP280;47054;39.716;2.904;2023-05-28T12:00:55;100035.56;;;26.88
61189;BMP280;47054;39.716;2.904;2023-05-28T12:03:40;100036.09;;;26.83
61189;BMP280;47054;39.716;2.904;2023-05-28T12:06:24;100037.94;;;26.86
61189;BMP280;47054;39.716;2.904;2023-05-28T12:09:11;100039.78;;;26.89
61189;BMP280;47054;39.716;2.904;2023-05-28T12:12:09;100035.44;;;26.91
61189;BMP280;47054;39.716;2.904;2023-05-28T12:14:56;100034.13;;;26.83
61189;BMP280;47054;39.716;2.904;2023-05-28T12:17:44;100043.72;;;26.88
61189;BMP280;47054;39.716;2.904;2023-05-28T12:20:33;100038.28;;;26.88
61189;BMP280;47054;39.716;2.904;2023-05-28T12:23:20;100032.19;;;26.84
61189;BMP280;47054;39.716;2.904;2023-05-28T12:26:09;100031.75;;;26.85
61189;BMP280;47054;39.716;2.904;2023-05-28T12:28:55;100031.13;;;26.81
61189;BMP280;47054;39.716;2.904;2023-05-28T12:31:40;100031.75;;;26.85
61189;BMP280;47054;39.716;2.904;2023-05-28T12:34:24;100035.97;;;26.86
61189;BMP280;47054;39.716;2.904;2023-05-28T12:37:09;100034.47;;;26.85
61189;BMP280;47054;39.716;2.904;2023-05-28T12:39:54;100025.22;;;26.83
61189;BMP280;47054;39.716;2.904;2023-05-28T12:42:38;100031.41;;;26.83
61189;BMP280;47054;39.716;2.904;2023-05-28T12:45:23;100026.88;;;26.80
61189;BMP280;47054;39.716;2.904;2023-05-28T12:48:08;100034.56;;;26.82
61189;BMP280;47054;39.716;2.904;2023-05-28T12:50:53;100036.44;;;26.85
61189;BMP280;47054;39.716;2.904;2023-05-28T12:53:37;100023.69;;;26.82
61189;BMP280;47054;39.716;2.904;2023-05-28T12:56:21;100019.91;;;26.79
61189;BMP280;47054;39.716;2.904;2023-05-28T12:59:08;100021.88;;;26.79
61189;BMP280;47054;39.716;2.904;2023-05-28T13:01:53;100017.53;;;26.81
61189;BMP280;47054;39.716;2.904;2023-05-28T13:04:38;100013.69;;;26.79
61189;BMP280;47054;39.716;2.904;2023-05-28T13:07:23;100015.88;;;26.84
61189;BMP280;47054;39.716;2.904;2023-05-28T13:10:08;100018.69;;;26.80
61189;BMP280;47054;39.716;2.904;2023-05-28T13:12:53;100020.66;;;26.80
61189;BMP280;47054;39.716;2.904;2023-05-28T13:15:38;100001.09;;;26.72
61189;BMP280;47054;39.716;2.904;2023-05-28T13:18:22;99999.00;;;26.76
61189;BMP280;47054;39.716;2.904;2023-05-28T13:21:08;99995.44;;;26.79
61189;BMP280;47054;39.716;2.904;2023-05-28T13:23:53;100003.81;;;26.85
61189;BMP280;47054;39.716;2.904;2023-05-28T13:26:38;99998.47;;;26.81
61189;BMP280;47054;39.716;2.904;2023-05-28T13:29:22;99997.59;;;26.84
61189;BMP280;47054;39.716;2.904;2023-05-28T13:32:07;99992.16;;;26.84
61189;BMP280;47054;39.716;2.904;2023-05-28T13:34:53;99987.59;;;26.81
61189;BMP280;47054;39.716;2.904;2023-05-28T13:37:37;99988.78;;;26.80
61189;BMP280;47054;39.716;2.904;2023-05-28T13:40:22;99991.81;;;26.82
61189;BMP280;47054;39.716;2.904;2023-05-28T13:43:08;99981.81;;;26.79
61189;BMP280;47054;39.716;2.904;2023-05-28T13:45:53;99988.22;;;26.85
61189;BMP280;47054;39.716;2.904;2023-05-28T13:48:38;99982.91;;;26.82
61189;BMP280;47054;39.716;2.904;2023-05-28T13:51:22;99992.16;;;26.84
61189;BMP280;47054;39.716;2.904;2023-05-28T13:54:07;99992.44;;;26.86
61189;BMP280;47054;39.716;2.904;2023-05-28T13:56:51;99978.97;;;26.83
61189;BMP280;47054;39.716;2.904;2023-05-28T13:59:36;99978.53;;;26.84
61189;BMP280;47054;39.716;2.904;2023-05-28T14:02:20;99980.63;;;26.80
61189;BMP280;47054;39.716;2.904;2023-05-28T14:05:05;99975.94;;;26.81
61189;BMP280;47054;39.716;2.904;2023-05-28T14:07:50;99982.78;;;26.85
61189;BMP280;47054;39.716;2.904;2023-05-28T14:10:35;99979.63;;;26.87
61189;BMP280;47054;39.716;2.904;2023-05-28T14:13:20;99979.72;;;26.83
61189;BMP280;47054;39.716;2.904;2023-05-28T14:16:04;99975.34;;;26.86
61189;BMP280;47054;39.716;2.904;2023-05-28T14:18:49;99975.72;;;26.88
61189;BMP280;47054;39.716;2.904;2023-05-28T14:21:33;99970.50;;;26.81
61189;BMP280;47054;39.716;2.904;2023-05-28T14:24:18;99976.44;;;26.88
61189;BMP280;47054;39.716;2.904;2023-05-28T14:27:03;99964.81;;;26.88
61189;BMP280;47054;39.716;2.904;2023-05-28T14:29:48;99957.09;;;26.86
61189;BMP280;47054;39.716;2.904;2023-05-28T14:32:32;99962.53;;;26.86
61189;BMP280;47054;39.716;2.904;2023-05-28T14:35:17;99949.81;;;26.83
61189;BMP280;47054;39.716;2.904;2023-05-28T14:38:03;99943.59;;;26.83
61189;BMP280;47054;39.716;2.904;2023-05-28T14:40:50;99958.63;;;26.87
61189;BMP280;47054;39.716;2.904;2023-05-28T14:43:34;99952.13;;;26.85
61189;BMP280;47054;39.716;2.904;2023-05-28T14:46:19;99946.06;;;26.90
61189;BMP280;47054;39.716;2.904;2023-05-28T14:49:04;99942.28;;;26.87
61189;BMP280;47054;39.716;2.904;2023-05-28T14:51:56;99952.59;;;26.92
61189;BMP280;47054;39.716;2.904;2023-05-28T14:54:41;99934.69;;;26.82
61189;BMP280;47054;39.716;2.904;2023-05-28T14:57:26;99951.22;;;26.88
61189;BMP280;47054;39.716;2.904;2023-05-28T15:00:12;99953.06;;;26.91
61189;BMP280;47054;39.716;2.904;2023-05-28T15:02:57;99945.78;;;26.88
61189;BMP280;47054;39.716;2.904;2023-05-28T15:05:42;99954.13;;;26.93
61189;BMP280;47054;39.716;2.904;2023-05-28T15:08:26;99945.31;;;26.89
61189;BMP280;47054;39.716;2.904;2023-05-28T15:11:13;99946.38;;;26.92
61189;BMP280;47054;39.716;2.904;2023-05-28T15:13:58;99940.34;;;26.88
61189;BMP280;47054;39.716;2.904;2023-05-28T15:16:43;99945.53;;;26.95
61189;BMP280;47054;39.716;2.904;2023-05-28T15:19:27;99942.06;;;26.94
61189;BMP280;47054;39.716;2.904;2023-05-28T15:22:12;99941.59;;;26.96
61189;BMP280;47054;39.716;2.904;2023-05-28T15:24:57;99947.03;;;26.96
61189;BMP280;47054;39.716;2.904;2023-05-28T15:27:42;99946.25;;;26.95
61189;BMP280;47054;39.716;2.904;2023-05-28T15:30:26;99944.31;;;26.96
61189;BMP280;47054;39.716;2.904;2023-05-28T15:33:12;99941.59;;;26.96
61189;BMP280;47054;39.716;2.904;2023-05-28T15:35:57;99944.78;;;26.94
61189;BMP280;47054;39.716;2.904;2023-05-28T15:38:42;99937.38;;;26.95
61189;BMP280;47054;39.716;2.904;2023-05-28T15:41:27;99943.53;;;26.95
61189;BMP280;47054;39.716;2.904;2023-05-28T15:44:12;99932.22;;;26.97
61189;BMP280;47054;39.716;2.904;2023-05-28T15:46:57;99941.53;;;26.87
61189;BMP280;47054;39.716;2.904;2023-05-28T15:49:42;99951.28;;;26.97
61189;BMP280;47054;39.716;2.904;2023-05-28T15:52:28;99952.47;;;26.96
61189;BMP280;47054;39.716;2.904;2023-05-28T15:55:14;99960.22;;;26.97
61189;BMP280;47054;39.716;2.904;2023-05-28T15:57:59;99964.88;;;26.97
61189;BMP280;47054;39.716;2.904;2023-05-28T16:00:44;99978.50;;;26.97